Taiki Maru — JI3464 — position and weather

sailwx.info

Track history (hours):
 
Tides and Currents Weather Stations Pressure Air Temp Water Temp Dewpoint Dewpoint Depression Visibility Wind Speed Wind Dir Waves Ship Positions

Taiki Maru

Last reported at 2016-Dec-03 10:33 UTC. Time now 2016-Dec-03 11:39 UTC.
Position N 35°28' E 139°40'.

Length 93 m; draft 6.6 m.

Type: Cargo ship. MMSI: 431300622.

Date/timePositionNaut miles runAvg speedWind from/ knotsBaromVisibWave heightAir tempDewpointWater temp
2016-Dec-03 10:33N 35°28' E 139°40'1010.0
2016-Dec-03 09:33N 35°18' E 139°44'1111.5
2016-Dec-03 08:33N 35°07' E 139°45'237 9.9
2016-Dec-02 08:33N 34°07' E 135°06'1 0.2
2016-Dec-02 03:33N 34°08' E 135°05'  
2016-Nov-29 03:05N 34°07' E 135°03'4 1.0
2016-Nov-28 23:10N 34°07' E 135°08'1 2.2
2016-Nov-28 22:33N 34°08' E 135°06'0 0.0
2016-Nov-28 21:18N 34°08' E 135°06'0 0.1
2016-Nov-28 20:30N 34°08' E 135°06'0 0.0
2016-Nov-28 19:33N 34°08' E 135°06'0 0.0
2016-Nov-28 18:33N 34°08' E 135°06'0 0.0
2016-Nov-28 17:24N 34°08' E 135°06'0 0.0
2016-Nov-28 16:33N 34°08' E 135°06'0 0.0
2016-Nov-28 15:33N 34°08' E 135°06'0 0.0
2016-Nov-28 14:33N 34°08' E 135°06'0 0.0
2016-Nov-28 13:30N 34°08' E 135°06'0 0.0
2016-Nov-28 12:27N 34°08' E 135°06'0 0.0
2016-Nov-28 11:27N 34°08' E 135°06'0 0.0
2016-Nov-28 10:33N 34°08' E 135°06'0 0.0
2016-Nov-28 09:33N 34°08' E 135°06'0 0.0
2016-Nov-28 08:33N 34°08' E 135°06'0 0.0
2016-Nov-28 07:33N 34°08' E 135°06'0 0.0
2016-Nov-28 06:33N 34°08' E 135°06'0 0.0
2016-Nov-28 05:15N 34°08' E 135°06'0 0.0
2016-Nov-28 04:33N 34°08' E 135°06'0 0.0
2016-Nov-28 03:27N 34°08' E 135°06'0 0.0
2016-Nov-28 02:21N 34°08' E 135°06'0 0.0
2016-Nov-28 01:33N 34°08' E 135°06'0 0.0
2016-Nov-28 00:33N 34°08' E 135°06'0 0.0
2016-Nov-27 23:30N 34°08' E 135°06'0 0.1
2016-Nov-27 22:33N 34°08' E 135°06'0 0.1
2016-Nov-27 21:33N 34°08' E 135°06'0 0.0
2016-Nov-27 20:33N 34°08' E 135°06'0 0.0
2016-Nov-27 19:33N 34°08' E 135°06'0 0.0
2016-Nov-27 18:33N 34°08' E 135°06'0 0.0
2016-Nov-27 17:33N 34°08' E 135°06'2 1.6
2016-Nov-27 16:33N 34°09' E 135°06'5 4.8
2016-Nov-27 15:29N 34°14' E 135°08'0 0.0
2016-Nov-27 14:29N 34°14' E 135°08'0 0.0
2016-Nov-27 13:32N 34°14' E 135°08'0 0.0
2016-Nov-27 12:29N 34°14' E 135°08'0 0.1
2016-Nov-27 11:32N 34°14' E 135°08'0 0.0
2016-Nov-27 10:32N 34°14' E 135°08'0 0.0
2016-Nov-27 09:32N 34°14' E 135°08'0 0.0
2016-Nov-27 08:32N 34°14' E 135°08'0 0.0
2016-Nov-27 07:32N 34°14' E 135°08'0 0.0
2016-Nov-27 06:29N 34°14' E 135°08'0 0.0
2016-Nov-27 05:29N 34°14' E 135°08'0 0.5
2016-Nov-27 04:33N 34°14' E 135°07'9 8.7
2016-Nov-27 03:33N 34°20' E 134°59'1313.0
2016-Nov-27 02:33N 34°32' E 135°03'9 9.4
2016-Nov-27 01:34N 34°37' E 134°53'10 0.3
2016-Nov-25 19:12N 34°41' E 134°41'1014.3
2016-Nov-25 18:32N 34°38' E 134°53'1212.4
2016-Nov-25 17:33N 34°34' E 135°06'1313.3
2016-Nov-25 16:33N 34°22' E 135°01'1312.5
2016-Nov-25 15:33N 34°09' E 134°60'23511.1
2016-Nov-24 18:26N 35°04' E 139°37'1213.5
2016-Nov-24 17:33N 35°13' E 139°46'1212.1
2016-Nov-24 16:33N 35°25' E 139°42'1 0.6
2016-Nov-24 15:31N 35°25' E 139°42'0 0.0
2016-Nov-24 14:32N 35°25' E 139°42'0 0.0
2016-Nov-24 13:32N 35°25' E 139°42'0 0.0
2016-Nov-24 12:31N 35°25' E 139°42'0 0.0
2016-Nov-24 11:32N 35°25' E 139°42'0 0.0
2016-Nov-24 10:31N 35°25' E 139°42'0 0.0
2016-Nov-24 09:31N 35°25' E 139°42'0 0.0
2016-Nov-24 08:28N 35°25' E 139°42'0 0.1
2016-Nov-24 07:31N 35°25' E 139°42'0 0.0
2016-Nov-24 06:32N 35°25' E 139°42'1 0.8
2016-Nov-24 05:31N 35°26' E 139°41'0 0.0
2016-Nov-24 04:31N 35°26' E 139°41'0 0.0
2016-Nov-24 03:31N 35°26' E 139°41'0 0.0
2016-Nov-24 02:31N 35°26' E 139°41'0 0.0
2016-Nov-24 01:31N 35°26' E 139°41'0 0.0
2016-Nov-24 00:31N 35°26' E 139°41'0 0.0
2016-Nov-23 23:31N 35°26' E 139°41'0 0.0
2016-Nov-23 22:31N 35°26' E 139°41'1 0.8
2016-Nov-23 21:32N 35°25' E 139°42'0 0.0
2016-Nov-23 20:32N 35°25' E 139°42'0 0.0
2016-Nov-23 19:32N 35°25' E 139°42'0 0.0
2016-Nov-23 18:32N 35°25' E 139°42'0 0.0
2016-Nov-23 17:32N 35°25' E 139°42'0 0.0
2016-Nov-23 16:32N 35°25' E 139°42'2 1.9
2016-Nov-23 15:33N 35°23' E 139°43'1211.6
2016-Nov-23 14:33N 35°12' E 139°47'  
Track history (hours):
 
Tides and Currents Weather Stations Pressure Air Temp Water Temp Dewpoint Dewpoint Depression Visibility Wind Speed Wind Dir Waves Ship Positions

Taiki Maru

Last reported at 2016-Dec-03 10:33 UTC. Time now 2016-Dec-03 11:39 UTC.
Position N 35°28' E 139°40'.

Length 93 m; draft 6.6 m.

Type: Cargo ship. MMSI: 431300622.

Date/timePositionNaut miles runAvg speedWind from/ knotsBaromVisibWave heightAir tempDewpointWater temp
2016-Dec-03 10:33N 35°28' E 139°40'1010.0
2016-Dec-03 09:33N 35°18' E 139°44'1111.5
2016-Dec-03 08:33N 35°07' E 139°45'237 9.9
2016-Dec-02 08:33N 34°07' E 135°06'1 0.2
2016-Dec-02 03:33N 34°08' E 135°05'  
2016-Nov-29 03:05N 34°07' E 135°03'4 1.0
2016-Nov-28 23:10N 34°07' E 135°08'1 2.2
2016-Nov-28 22:33N 34°08' E 135°06'0 0.0
2016-Nov-28 21:18N 34°08' E 135°06'0 0.1
2016-Nov-28 20:30N 34°08' E 135°06'0 0.0
2016-Nov-28 19:33N 34°08' E 135°06'0 0.0
2016-Nov-28 18:33N 34°08' E 135°06'0 0.0
2016-Nov-28 17:24N 34°08' E 135°06'0 0.0
2016-Nov-28 16:33N 34°08' E 135°06'0 0.0
2016-Nov-28 15:33N 34°08' E 135°06'0 0.0
2016-Nov-28 14:33N 34°08' E 135°06'0 0.0
2016-Nov-28 13:30N 34°08' E 135°06'0 0.0
2016-Nov-28 12:27N 34°08' E 135°06'0 0.0
2016-Nov-28 11:27N 34°08' E 135°06'0 0.0
2016-Nov-28 10:33N 34°08' E 135°06'0 0.0
2016-Nov-28 09:33N 34°08' E 135°06'0 0.0
2016-Nov-28 08:33N 34°08' E 135°06'0 0.0
2016-Nov-28 07:33N 34°08' E 135°06'0 0.0
2016-Nov-28 06:33N 34°08' E 135°06'0 0.0
2016-Nov-28 05:15N 34°08' E 135°06'0 0.0
2016-Nov-28 04:33N 34°08' E 135°06'0 0.0
2016-Nov-28 03:27N 34°08' E 135°06'0 0.0
2016-Nov-28 02:21N 34°08' E 135°06'0 0.0
2016-Nov-28 01:33N 34°08' E 135°06'0 0.0
2016-Nov-28 00:33N 34°08' E 135°06'0 0.0
2016-Nov-27 23:30N 34°08' E 135°06'0 0.1
2016-Nov-27 22:33N 34°08' E 135°06'0 0.1
2016-Nov-27 21:33N 34°08' E 135°06'0 0.0
2016-Nov-27 20:33N 34°08' E 135°06'0 0.0
2016-Nov-27 19:33N 34°08' E 135°06'0 0.0
2016-Nov-27 18:33N 34°08' E 135°06'0 0.0
2016-Nov-27 17:33N 34°08' E 135°06'2 1.6
2016-Nov-27 16:33N 34°09' E 135°06'5 4.8
2016-Nov-27 15:29N 34°14' E 135°08'0 0.0
2016-Nov-27 14:29N 34°14' E 135°08'0 0.0
2016-Nov-27 13:32N 34°14' E 135°08'0 0.0
2016-Nov-27 12:29N 34°14' E 135°08'0 0.1
2016-Nov-27 11:32N 34°14' E 135°08'0 0.0
2016-Nov-27 10:32N 34°14' E 135°08'0 0.0
2016-Nov-27 09:32N 34°14' E 135°08'0 0.0
2016-Nov-27 08:32N 34°14' E 135°08'0 0.0
2016-Nov-27 07:32N 34°14' E 135°08'0 0.0
2016-Nov-27 06:29N 34°14' E 135°08'0 0.0
2016-Nov-27 05:29N 34°14' E 135°08'0 0.5
2016-Nov-27 04:33N 34°14' E 135°07'9 8.7
2016-Nov-27 03:33N 34°20' E 134°59'1313.0
2016-Nov-27 02:33N 34°32' E 135°03'9 9.4
2016-Nov-27 01:34N 34°37' E 134°53'10 0.3
2016-Nov-25 19:12N 34°41' E 134°41'1014.3
2016-Nov-25 18:32N 34°38' E 134°53'1212.4
2016-Nov-25 17:33N 34°34' E 135°06'1313.3
2016-Nov-25 16:33N 34°22' E 135°01'1312.5
2016-Nov-25 15:33N 34°09' E 134°60'23511.1
2016-Nov-24 18:26N 35°04' E 139°37'1213.5
2016-Nov-24 17:33N 35°13' E 139°46'1212.1
2016-Nov-24 16:33N 35°25' E 139°42'1 0.6
2016-Nov-24 15:31N 35°25' E 139°42'0 0.0
2016-Nov-24 14:32N 35°25' E 139°42'0 0.0
2016-Nov-24 13:32N 35°25' E 139°42'0 0.0
2016-Nov-24 12:31N 35°25' E 139°42'0 0.0
2016-Nov-24 11:32N 35°25' E 139°42'0 0.0
2016-Nov-24 10:31N 35°25' E 139°42'0 0.0
2016-Nov-24 09:31N 35°25' E 139°42'0 0.0
2016-Nov-24 08:28N 35°25' E 139°42'0 0.1
2016-Nov-24 07:31N 35°25' E 139°42'0 0.0
2016-Nov-24 06:32N 35°25' E 139°42'1 0.8
2016-Nov-24 05:31N 35°26' E 139°41'0 0.0
2016-Nov-24 04:31N 35°26' E 139°41'0 0.0
2016-Nov-24 03:31N 35°26' E 139°41'0 0.0
2016-Nov-24 02:31N 35°26' E 139°41'0 0.0
2016-Nov-24 01:31N 35°26' E 139°41'0 0.0
2016-Nov-24 00:31N 35°26' E 139°41'0 0.0
2016-Nov-23 23:31N 35°26' E 139°41'0 0.0
2016-Nov-23 22:31N 35°26' E 139°41'1 0.8
2016-Nov-23 21:32N 35°25' E 139°42'0 0.0
2016-Nov-23 20:32N 35°25' E 139°42'0 0.0
2016-Nov-23 19:32N 35°25' E 139°42'0 0.0
2016-Nov-23 18:32N 35°25' E 139°42'0 0.0
2016-Nov-23 17:32N 35°25' E 139°42'0 0.0
2016-Nov-23 16:32N 35°25' E 139°42'2 1.9
2016-Nov-23 15:33N 35°23' E 139°43'1211.6
2016-Nov-23 14:33N 35°12' E 139°47'  

Dump ship's entire track history